sensor_id;sensor_type;location;lat;lon;timestamp;P1;durP1;ratioP1;P2;durP2;ratioP2
44126;SDS011;29786;50.798;7.302;2022-08-02T00:00:51;4.2;;;3.8;;
44126;SDS011;29786;50.798;7.302;2022-08-02T00:01:52;3.8;;;3.5;;
44126;SDS011;29786;50.798;7.302;2022-08-02T00:02:52;4.3;;;3.4;;
44126;SDS011;29786;50.798;7.302;2022-08-02T00:03:52;3.9;;;3.5;;
44126;SDS011;29786;50.798;7.302;2022-08-02T00:04:51;4.9;;;3.3;;
44126;SDS011;29786;50.798;7.302;2022-08-02T00:05:51;4;;;3.2;;
44126;SDS011;29786;50.798;7.302;2022-08-02T00:06:51;4.7;;;3.5;;
44126;SDS011;29786;50.798;7.302;2022-08-02T00:07:51;3.4;;;3.1;;
44126;SDS011;29786;50.798;7.302;2022-08-02T00:08:52;5.6;;;4.1;;
44126;SDS011;29786;50.798;7.302;2022-08-02T00:09:52;5;;;3.8;;
44126;SDS011;29786;50.798;7.302;2022-08-02T00:10:52;4.2;;;3.7;;
44126;SDS011;29786;50.798;7.302;2022-08-02T00:11:51;5.9;;;4.1;;
44126;SDS011;29786;50.798;7.302;2022-08-02T00:12:52;5.3;;;4.2;;
44126;SDS011;29786;50.798;7.302;2022-08-02T00:13:52;5.2;;;4.1;;
44126;SDS011;29786;50.798;7.302;2022-08-02T00:14:51;6.8;;;4.4;;
44126;SDS011;29786;50.798;7.302;2022-08-02T00:15:52;5;;;4.5;;
44126;SDS011;29786;50.798;7.302;2022-08-02T00:16:52;5.5;;;4.7;;
44126;SDS011;29786;50.798;7.302;2022-08-02T00:17:52;5.6;;;4.4;;
44126;SDS011;29786;50.798;7.302;2022-08-02T00:18:52;4.8;;;4.4;;
44126;SDS011;29786;50.798;7.302;2022-08-02T00:19:51;5.2;;;4.7;;
44126;SDS011;29786;50.798;7.302;2022-08-02T00:20:51;5.9;;;4.4;;
44126;SDS011;29786;50.798;7.302;2022-08-02T00:21:52;5.8;;;4.6;;
44126;SDS011;29786;50.798;7.302;2022-08-02T00:22:51;5.3;;;4.8;;
44126;SDS011;29786;50.798;7.302;2022-08-02T00:23:52;6.3;;;5.2;;
44126;SDS011;29786;50.798;7.302;2022-08-02T00:24:52;7;;;5.2;;
44126;SDS011;29786;50.798;7.302;2022-08-02T00:25:52;6.2;;;5.5;;
44126;SDS011;29786;50.798;7.302;2022-08-02T00:26:52;6.5;;;5.4;;
44126;SDS011;29786;50.798;7.302;2022-08-02T00:27:52;5.9;;;5.3;;
44126;SDS011;29786;50.798;7.302;2022-08-02T00:28:51;7.1;;;5.8;;
44126;SDS011;29786;50.798;7.302;2022-08-02T00:29:51;8.3;;;5.4;;
44126;SDS011;29786;50.798;7.302;2022-08-02T00:30:52;6;;;5.4;;
44126;SDS011;29786;50.798;7.302;2022-08-02T00:31:52;6.8;;;5.9;;
44126;SDS011;29786;50.798;7.302;2022-08-02T00:32:52;7.3;;;5.9;;
44126;SDS011;29786;50.798;7.302;2022-08-02T00:33:52;7.3;;;5.7;;
44126;SDS011;29786;50.798;7.302;2022-08-02T00:34:52;5.7;;;5.1;;
44126;SDS011;29786;50.798;7.302;2022-08-02T00:35:52;5.5;;;5;;
44126;SDS011;29786;50.798;7.302;2022-08-02T00:36:52;5.4;;;4.7;;
44126;SDS011;29786;50.798;7.302;2022-08-02T00:37:52;6.2;;;4.8;;
44126;SDS011;29786;50.798;7.302;2022-08-02T00:38:52;5.8;;;4.5;;
44126;SDS011;29786;50.798;7.302;2022-08-02T00:39:52;7.6;;;5.1;;
44126;SDS011;29786;50.798;7.302;2022-08-02T00:40:52;6.3;;;5;;
44126;SDS011;29786;50.798;7.302;2022-08-02T00:41:52;4.9;;;4.3;;
44126;SDS011;29786;50.798;7.302;2022-08-02T00:43:08;6.9;;;5.4;;
44126;SDS011;29786;50.798;7.302;2022-08-02T00:43:51;5.1;;;4.6;;
44126;SDS011;29786;50.798;7.302;2022-08-02T00:44:52;6.2;;;4.7;;
44126;SDS011;29786;50.798;7.302;2022-08-02T00:45:52;4.3;;;3.7;;
44126;SDS011;29786;50.798;7.302;2022-08-02T00:46:51;6;;;4.7;;
44126;SDS011;29786;50.798;7.302;2022-08-02T00:47:52;4.3;;;3.7;;
44126;SDS011;29786;50.798;7.302;2022-08-02T00:48:52;6.6;;;5;;
44126;SDS011;29786;50.798;7.302;2022-08-02T00:49:51;5.7;;;5.1;;
44126;SDS011;29786;50.798;7.302;2022-08-02T00:50:51;6.2;;;4.7;;
44126;SDS011;29786;50.798;7.302;2022-08-02T00:51:52;5.6;;;5;;
44126;SDS011;29786;50.798;7.302;2022-08-02T00:52:52;7.2;;;5.5;;
44126;SDS011;29786;50.798;7.302;2022-08-02T00:53:52;8.2;;;5.9;;
44126;SDS011;29786;50.798;7.302;2022-08-02T00:54:51;6.7;;;5.5;;
44126;SDS011;29786;50.798;7.302;2022-08-02T00:55:52;10.4;;;5.9;;
44126;SDS011;29786;50.798;7.302;2022-08-02T00:56:52;7.1;;;5.9;;
44126;SDS011;29786;50.798;7.302;2022-08-02T00:57:52;7.8;;;5.8;;
44126;SDS011;29786;50.798;7.302;2022-08-02T00:58:52;6.6;;;5.9;;
44126;SDS011;29786;50.798;7.302;2022-08-02T00:59:52;5.8;;;5.3;;
44126;SDS011;29786;50.798;7.302;2022-08-02T01:00:52;6.6;;;6;;
44126;SDS011;29786;50.798;7.302;2022-08-02T01:01:51;7.1;;;6.4;;
44126;SDS011;29786;50.798;7.302;2022-08-02T01:02:52;7.8;;;6.6;;
44126;SDS011;29786;50.798;7.302;2022-08-02T01:03:52;7.4;;;6.6;;
44126;SDS011;29786;50.798;7.302;2022-08-02T01:04:52;7.2;;;6.2;;
44126;SDS011;29786;50.798;7.302;2022-08-02T01:05:52;6.2;;;5.6;;
44126;SDS011;29786;50.798;7.302;2022-08-02T01:06:52;6.6;;;5.8;;
44126;SDS011;29786;50.798;7.302;2022-08-02T01:07:51;10.9;;;5.9;;
44126;SDS011;29786;50.798;7.302;2022-08-02T01:08:51;7.6;;;5.3;;
44126;SDS011;29786;50.798;7.302;2022-08-02T01:09:52;10.4;;;6.1;;
44126;SDS011;29786;50.798;7.302;2022-08-02T01:10:51;6.6;;;5.5;;
44126;SDS011;29786;50.798;7.302;2022-08-02T01:11:52;6.9;;;5.4;;
44126;SDS011;29786;50.798;7.302;2022-08-02T01:12:52;5.6;;;4.9;;
44126;SDS011;29786;50.798;7.302;2022-08-02T01:13:52;5.9;;;5.1;;
44126;SDS011;29786;50.798;7.302;2022-08-02T01:14:52;6.7;;;5.8;;
44126;SDS011;29786;50.798;7.302;2022-08-02T01:15:54;10.2;;;6;;
44126;SDS011;29786;50.798;7.302;2022-08-02T01:16:58;6.6;;;5.9;;
44126;SDS011;29786;50.798;7.302;2022-08-02T01:17:59;7.5;;;6.2;;
44126;SDS011;29786;50.798;7.302;2022-08-02T01:18:53;7.7;;;5.8;;
44126;SDS011;29786;50.798;7.302;2022-08-02T01:19:56;6.4;;;5.6;;
44126;SDS011;29786;50.798;7.302;2022-08-02T01:21:05;7.3;;;5.3;;
44126;SDS011;29786;50.798;7.302;2022-08-02T01:21:58;9.3;;;5.3;;
44126;SDS011;29786;50.798;7.302;2022-08-02T01:23:30;7.6;;;4.9;;
44126;SDS011;29786;50.798;7.302;2022-08-02T01:24:13;5.7;;;4.3;;
44126;SDS011;29786;50.798;7.302;2022-08-02T01:26:12;5.4;;;4.8;;
44126;SDS011;29786;50.798;7.302;2022-08-02T01:26:55;5;;;4.3;;
44126;SDS011;29786;50.798;7.302;2022-08-02T01:28:10;5.4;;;4.9;;
44126;SDS011;29786;50.798;7.302;2022-08-02T01:28:54;6.9;;;4.9;;
44126;SDS011;29786;50.798;7.302;2022-08-02T01:29:52;4.8;;;4.2;;
44126;SDS011;29786;50.798;7.302;2022-08-02T01:30:54;5.1;;;4.6;;
44126;SDS011;29786;50.798;7.302;2022-08-02T01:31:54;5.6;;;4.6;;
44126;SDS011;29786;50.798;7.302;2022-08-02T01:32:53;5.5;;;4;;
44126;SDS011;29786;50.798;7.302;2022-08-02T01:33:55;4.8;;;4.4;;
44126;SDS011;29786;50.798;7.302;2022-08-02T01:34:53;6.6;;;5;;
44126;SDS011;29786;50.798;7.302;2022-08-02T01:35:52;6.3;;;4.6;;
44126;SDS011;29786;50.798;7.302;2022-08-02T01:36:55;4.8;;;4.3;;
44126;SDS011;29786;50.798;7.302;2022-08-02T01:37:54;6.8;;;4.6;;
44126;SDS011;29786;50.798;7.302;2022-08-02T01:38:52;3.9;;;3.6;;
44126;SDS011;29786;50.798;7.302;2022-08-02T01:39:57;6.7;;;4.4;;
44126;SDS011;29786;50.798;7.302;2022-08-02T01:40:52;4.2;;;3.7;;
44126;SDS011;29786;50.798;7.302;2022-08-02T01:41:52;4.2;;;3.8;;
44126;SDS011;29786;50.798;7.302;2022-08-02T01:42:52;7.4;;;4.3;;
44126;SDS011;29786;50.798;7.302;2022-08-02T01:43:53;5.9;;;4.5;;
44126;SDS011;29786;50.798;7.302;2022-08-02T01:44:52;6.3;;;4.1;;
44126;SDS011;29786;50.798;7.302;2022-08-02T01:45:52;5.6;;;4.3;;
44126;SDS011;29786;50.798;7.302;2022-08-02T01:46:52;5;;;4.1;;
44126;SDS011;29786;50.798;7.302;2022-08-02T01:47:52;4.7;;;4.3;;
44126;SDS011;29786;50.798;7.302;2022-08-02T01:48:52;5.9;;;4.6;;
44126;SDS011;29786;50.798;7.302;2022-08-02T01:49:52;6.1;;;5.1;;
44126;SDS011;29786;50.798;7.302;2022-08-02T01:50:51;5.6;;;5.1;;
44126;SDS011;29786;50.798;7.302;2022-08-02T01:51:52;5.5;;;4.8;;
44126;SDS011;29786;50.798;7.302;2022-08-02T01:52:52;5.9;;;5.4;;
44126;SDS011;29786;50.798;7.302;2022-08-02T01:53:52;5.5;;;5;;
44126;SDS011;29786;50.798;7.302;2022-08-02T01:54:56;5.9;;;5.3;;
44126;SDS011;29786;50.798;7.302;2022-08-02T01:55:52;5.7;;;4.7;;
44126;SDS011;29786;50.798;7.302;2022-08-02T01:56:51;5.6;;;4.9;;
44126;SDS011;29786;50.798;7.302;2022-08-02T01:57:52;5.7;;;5.1;;
44126;SDS011;29786;50.798;7.302;2022-08-02T01:58:51;5.7;;;5.1;;
44126;SDS011;29786;50.798;7.302;2022-08-02T01:59:52;4.7;;;4.3;;
44126;SDS011;29786;50.798;7.302;2022-08-02T02:00:52;5.9;;;5.4;;
44126;SDS011;29786;50.798;7.302;2022-08-02T02:01:52;4.8;;;4.3;;
44126;SDS011;29786;50.798;7.302;2022-08-02T02:02:53;5.9;;;4.6;;
44126;SDS011;29786;50.798;7.302;2022-08-02T02:03:52;5;;;4.1;;
44126;SDS011;29786;50.798;7.302;2022-08-02T02:04:51;5.8;;;5.3;;
44126;SDS011;29786;50.798;7.302;2022-08-02T02:05:52;4.7;;;4.3;;
44126;SDS011;29786;50.798;7.302;2022-08-02T02:06:52;5.2;;;4.7;;
44126;SDS011;29786;50.798;7.302;2022-08-02T02:07:52;6.6;;;5.8;;
44126;SDS011;29786;50.798;7.302;2022-08-02T02:08:52;5.1;;;4.6;;
44126;SDS011;29786;50.798;7.302;2022-08-02T02:09:52;6.5;;;5.7;;
44126;SDS011;29786;50.798;7.302;2022-08-02T02:10:52;6.5;;;5.8;;
44126;SDS011;29786;50.798;7.302;2022-08-02T02:11:52;8.1;;;6.3;;
44126;SDS011;29786;50.798;7.302;2022-08-02T02:12:52;7;;;6.4;;
44126;SDS011;29786;50.798;7.302;2022-08-02T02:13:52;6.7;;;6;;
44126;SDS011;29786;50.798;7.302;2022-08-02T02:14:52;5.3;;;4.9;;
44126;SDS011;29786;50.798;7.302;2022-08-02T02:15:52;7.2;;;6.5;;
44126;SDS011;29786;50.798;7.302;2022-08-02T02:16:52;6.7;;;6.1;;
44126;SDS011;29786;50.798;7.302;2022-08-02T02:17:52;6.2;;;5.6;;
44126;SDS011;29786;50.798;7.302;2022-08-02T02:18:52;6.9;;;6.2;;
44126;SDS011;29786;50.798;7.302;2022-08-02T02:19:52;6.4;;;5.4;;
44126;SDS011;29786;50.798;7.302;2022-08-02T02:20:52;7.3;;;6.2;;
44126;SDS011;29786;50.798;7.302;2022-08-02T02:21:52;6.5;;;5.9;;
44126;SDS011;29786;50.798;7.302;2022-08-02T02:22:52;6.6;;;5.9;;
44126;SDS011;29786;50.798;7.302;2022-08-02T02:23:52;6.9;;;6.3;;
44126;SDS011;29786;50.798;7.302;2022-08-02T02:24:52;6.5;;;6;;
44126;SDS011;29786;50.798;7.302;2022-08-02T02:25:52;6.3;;;5.8;;
44126;SDS011;29786;50.798;7.302;2022-08-02T02:26:52;8.4;;;6;;
44126;SDS011;29786;50.798;7.302;2022-08-02T02:27:54;6.3;;;5.7;;
44126;SDS011;29786;50.798;7.302;2022-08-02T02:28:52;7.3;;;5.7;;
44126;SDS011;29786;50.798;7.302;2022-08-02T02:29:52;7;;;6.3;;
44126;SDS011;29786;50.798;7.302;2022-08-02T02:30:53;6.1;;;5.5;;
44126;SDS011;29786;50.798;7.302;2022-08-02T02:31:52;6.8;;;6.2;;
44126;SDS011;29786;50.798;7.302;2022-08-02T02:32:52;6.8;;;6.2;;
44126;SDS011;29786;50.798;7.302;2022-08-02T02:33:56;6.2;;;5.6;;
44126;SDS011;29786;50.798;7.302;2022-08-02T02:34:52;6.9;;;6.2;;
44126;SDS011;29786;50.798;7.302;2022-08-02T02:35:52;6.6;;;6;;
44126;SDS011;29786;50.798;7.302;2022-08-02T02:36:52;6.5;;;5.9;;
44126;SDS011;29786;50.798;7.302;2022-08-02T02:37:52;6.9;;;6.2;;
44126;SDS011;29786;50.798;7.302;2022-08-02T02:38:52;8.2;;;7.4;;
44126;SDS011;29786;50.798;7.302;2022-08-02T02:39:52;7.7;;;6.9;;
44126;SDS011;29786;50.798;7.302;2022-08-02T02:40:52;6.6;;;6;;
44126;SDS011;29786;50.798;7.302;2022-08-02T02:41:52;7.8;;;7.1;;
44126;SDS011;29786;50.798;7.302;2022-08-02T02:42:52;9;;;7.3;;
44126;SDS011;29786;50.798;7.302;2022-08-02T02:43:53;7.6;;;6.8;;
44126;SDS011;29786;50.798;7.302;2022-08-02T02:44:52;8.2;;;7.4;;
44126;SDS011;29786;50.798;7.302;2022-08-02T02:45:51;8.1;;;7.3;;
44126;SDS011;29786;50.798;7.302;2022-08-02T02:46:52;8.2;;;7.4;;
44126;SDS011;29786;50.798;7.302;2022-08-02T02:47:52;8.5;;;7.7;;
44126;SDS011;29786;50.798;7.302;2022-08-02T02:48:52;8.8;;;7.7;;
44126;SDS011;29786;50.798;7.302;2022-08-02T02:49:52;8.6;;;7.8;;
44126;SDS011;29786;50.798;7.302;2022-08-02T02:50:52;8.1;;;7.3;;
44126;SDS011;29786;50.798;7.302;2022-08-02T02:51:52;7.5;;;6.7;;
44126;SDS011;29786;50.798;7.302;2022-08-02T02:52:52;9.2;;;8.2;;
44126;SDS011;29786;50.798;7.302;2022-08-02T02:53:52;7.6;;;6.9;;
44126;SDS011;29786;50.798;7.302;2022-08-02T02:54:52;8.5;;;7.4;;
44126;SDS011;29786;50.798;7.302;2022-08-02T02:55:52;9.5;;;7.7;;
44126;SDS011;29786;50.798;7.302;2022-08-02T02:56:52;7.8;;;6.4;;
44126;SDS011;29786;50.798;7.302;2022-08-02T02:57:52;7.9;;;7.1;;
44126;SDS011;29786;50.798;7.302;2022-08-02T02:58:52;8.2;;;7.4;;
44126;SDS011;29786;50.798;7.302;2022-08-02T02:59:51;7.3;;;6.7;;
44126;SDS011;29786;50.798;7.302;2022-08-02T03:00:52;6.6;;;6;;
44126;SDS011;29786;50.798;7.302;2022-08-02T03:01:52;8.2;;;7.3;;
44126;SDS011;29786;50.798;7.302;2022-08-02T03:02:52;7.5;;;6.8;;
44126;SDS011;29786;50.798;7.302;2022-08-02T03:03:52;6.7;;;6;;
44126;SDS011;29786;50.798;7.302;2022-08-02T03:04:52;6.8;;;6.1;;
44126;SDS011;29786;50.798;7.302;2022-08-02T03:05:52;7.9;;;7.1;;
44126;SDS011;29786;50.798;7.302;2022-08-02T03:06:52;7.9;;;7.2;;
44126;SDS011;29786;50.798;7.302;2022-08-02T03:07:52;7.8;;;7;;
44126;SDS011;29786;50.798;7.302;2022-08-02T03:08:52;8.6;;;7.8;;
44126;SDS011;29786;50.798;7.302;2022-08-02T03:09:52;8.1;;;7.3;;
44126;SDS011;29786;50.798;7.302;2022-08-02T03:10:52;8.7;;;7.8;;
44126;SDS011;29786;50.798;7.302;2022-08-02T03:11:52;9.9;;;7.6;;
44126;SDS011;29786;50.798;7.302;2022-08-02T03:12:52;7.8;;;6.9;;
44126;SDS011;29786;50.798;7.302;2022-08-02T03:13:52;8.5;;;7.6;;
44126;SDS011;29786;50.798;7.302;2022-08-02T03:14:52;9.1;;;7.8;;
44126;SDS011;29786;50.798;7.302;2022-08-02T03:15:52;9.3;;;7.5;;
44126;SDS011;29786;50.798;7.302;2022-08-02T03:16:52;8;;;7.2;;
44126;SDS011;29786;50.798;7.302;2022-08-02T03:17:52;8.6;;;7.8;;
44126;SDS011;29786;50.798;7.302;2022-08-02T03:18:52;8.9;;;8;;
44126;SDS011;29786;50.798;7.302;2022-08-02T03:19:52;8.9;;;8;;
44126;SDS011;29786;50.798;7.302;2022-08-02T03:20:52;10;;;8.3;;
44126;SDS011;29786;50.798;7.302;2022-08-02T03:21:52;8.9;;;7.8;;
44126;SDS011;29786;50.798;7.302;2022-08-02T03:22:52;8.9;;;8;;
44126;SDS011;29786;50.798;7.302;2022-08-02T03:23:52;8;;;7.2;;
44126;SDS011;29786;50.798;7.302;2022-08-02T03:24:52;7.8;;;7.1;;
44126;SDS011;29786;50.798;7.302;2022-08-02T03:25:52;8.9;;;8;;
44126;SDS011;29786;50.798;7.302;2022-08-02T03:26:52;7.7;;;7;;
44126;SDS011;29786;50.798;7.302;2022-08-02T03:27:52;7;;;6.3;;
44126;SDS011;29786;50.798;7.302;2022-08-02T03:28:52;7.8;;;7;;
44126;SDS011;29786;50.798;7.302;2022-08-02T03:29:52;7.9;;;7.1;;
44126;SDS011;29786;50.798;7.302;2022-08-02T03:30:52;9.1;;;7.5;;
44126;SDS011;29786;50.798;7.302;2022-08-02T03:31:52;7.5;;;6.8;;
44126;SDS011;29786;50.798;7.302;2022-08-02T03:32:52;8.4;;;7.4;;
44126;SDS011;29786;50.798;7.302;2022-08-02T03:33:52;9;;;8.1;;
44126;SDS011;29786;50.798;7.302;2022-08-02T03:34:52;7.5;;;6.7;;
44126;SDS011;29786;50.798;7.302;2022-08-02T03:35:53;8.3;;;6.7;;
44126;SDS011;29786;50.798;7.302;2022-08-02T03:36:53;8.2;;;7.4;;
44126;SDS011;29786;50.798;7.302;2022-08-02T03:37:52;7.3;;;6.6;;
44126;SDS011;29786;50.798;7.302;2022-08-02T03:38:52;9.9;;;7.9;;
44126;SDS011;29786;50.798;7.302;2022-08-02T03:39:52;8.8;;;7.2;;
44126;SDS011;29786;50.798;7.302;2022-08-02T03:40:52;8.8;;;7.9;;
44126;SDS011;29786;50.798;7.302;2022-08-02T03:41:52;9.3;;;8.3;;
44126;SDS011;29786;50.798;7.302;2022-08-02T03:42:52;9.6;;;8.1;;
44126;SDS011;29786;50.798;7.302;2022-08-02T03:43:52;7.8;;;6.7;;
44126;SDS011;29786;50.798;7.302;2022-08-02T03:44:52;8.6;;;7.2;;
44126;SDS011;29786;50.798;7.302;2022-08-02T03:45:52;8.5;;;7.6;;
44126;SDS011;29786;50.798;7.302;2022-08-02T03:46:52;8.5;;;7.7;;
44126;SDS011;29786;50.798;7.302;2022-08-02T03:47:52;7.9;;;7.1;;
44126;SDS011;29786;50.798;7.302;2022-08-02T03:48:52;8.2;;;6.5;;
44126;SDS011;29786;50.798;7.302;2022-08-02T03:49:52;8.3;;;7.5;;
44126;SDS011;29786;50.798;7.302;2022-08-02T03:50:52;8.7;;;7.9;;
44126;SDS011;29786;50.798;7.302;2022-08-02T03:51:52;8.4;;;7.5;;
44126;SDS011;29786;50.798;7.302;2022-08-02T03:52:52;8.9;;;7.9;;
44126;SDS011;29786;50.798;7.302;2022-08-02T03:53:52;9.2;;;8.3;;
44126;SDS011;29786;50.798;7.302;2022-08-02T03:54:52;8.6;;;7.7;;
44126;SDS011;29786;50.798;7.302;2022-08-02T03:55:52;10.7;;;8;;
44126;SDS011;29786;50.798;7.302;2022-08-02T03:56:52;7.8;;;7;;
44126;SDS011;29786;50.798;7.302;2022-08-02T03:57:52;9;;;8.1;;
44126;SDS011;29786;50.798;7.302;2022-08-02T03:59:03;8.1;;;7.3;;
44126;SDS011;29786;50.798;7.302;2022-08-02T03:59:52;9.7;;;7.8;;
44126;SDS011;29786;50.798;7.302;2022-08-02T04:00:52;8.6;;;7.8;;
44126;SDS011;29786;50.798;7.302;2022-08-02T04:01:52;9.6;;;7.3;;
44126;SDS011;29786;50.798;7.302;2022-08-02T04:02:52;7.1;;;6.4;;
44126;SDS011;29786;50.798;7.302;2022-08-02T04:03:52;9.3;;;8.1;;
44126;SDS011;29786;50.798;7.302;2022-08-02T04:04:52;7.8;;;7;;
44126;SDS011;29786;50.798;7.302;2022-08-02T04:05:52;8.7;;;7.7;;
44126;SDS011;29786;50.798;7.302;2022-08-02T04:06:52;7.3;;;6.5;;
44126;SDS011;29786;50.798;7.302;2022-08-02T04:07:52;7.4;;;6.7;;
44126;SDS011;29786;50.798;7.302;2022-08-02T04:08:52;7.1;;;6.4;;
44126;SDS011;29786;50.798;7.302;2022-08-02T04:09:52;6.2;;;5.6;;
44126;SDS011;29786;50.798;7.302;2022-08-02T04:10:52;6.7;;;5.9;;
44126;SDS011;29786;50.798;7.302;2022-08-02T04:11:52;9.1;;;6.9;;
44126;SDS011;29786;50.798;7.302;2022-08-02T04:12:52;7.5;;;6.5;;
44126;SDS011;29786;50.798;7.302;2022-08-02T04:13:52;7.9;;;7.1;;
44126;SDS011;29786;50.798;7.302;2022-08-02T04:14:52;7.6;;;6.9;;
44126;SDS011;29786;50.798;7.302;2022-08-02T04:15:53;6.9;;;5.4;;
44126;SDS011;29786;50.798;7.302;2022-08-02T04:16:57;9.2;;;6.6;;
44126;SDS011;29786;50.798;7.302;2022-08-02T04:17:53;7.8;;;7;;
44126;SDS011;29786;50.798;7.302;2022-08-02T04:18:55;7.7;;;6.7;;
44126;SDS011;29786;50.798;7.302;2022-08-02T04:19:52;8.6;;;7;;
44126;SDS011;29786;50.798;7.302;2022-08-02T04:20:52;8.3;;;6.5;;
44126;SDS011;29786;50.798;7.302;2022-08-02T04:21:52;8.5;;;6.6;;
44126;SDS011;29786;50.798;7.302;2022-08-02T04:23:00;8.1;;;7.3;;
44126;SDS011;29786;50.798;7.302;2022-08-02T04:23:52;6.8;;;5.4;;
44126;SDS011;29786;50.798;7.302;2022-08-02T04:24:53;7.9;;;7.1;;
44126;SDS011;29786;50.798;7.302;2022-08-02T04:25:52;8.5;;;7.6;;
44126;SDS011;29786;50.798;7.302;2022-08-02T04:26:53;7.3;;;6.7;;
44126;SDS011;29786;50.798;7.302;2022-08-02T04:27:52;8.5;;;7.7;;
44126;SDS011;29786;50.798;7.302;2022-08-02T04:28:52;9.5;;;6.9;;
44126;SDS011;29786;50.798;7.302;2022-08-02T04:29:52;8.7;;;6.8;;
44126;SDS011;29786;50.798;7.302;2022-08-02T04:30:52;7.7;;;6;;
44126;SDS011;29786;50.798;7.302;2022-08-02T04:31:52;7.5;;;6.8;;
44126;SDS011;29786;50.798;7.302;2022-08-02T04:32:52;8;;;7.3;;
44126;SDS011;29786;50.798;7.302;2022-08-02T04:33:52;8.4;;;6.7;;
44126;SDS011;29786;50.798;7.302;2022-08-02T04:34:52;7.9;;;7;;
44126;SDS011;29786;50.798;7.302;2022-08-02T04:35:52;8.6;;;7.8;;
44126;SDS011;29786;50.798;7.302;2022-08-02T04:36:52;7.5;;;6.8;;
44126;SDS011;29786;50.798;7.302;2022-08-02T04:37:52;10.3;;;7.6;;
44126;SDS011;29786;50.798;7.302;2022-08-02T04:38:52;8.7;;;7.4;;
44126;SDS011;29786;50.798;7.302;2022-08-02T04:39:52;8.7;;;7.2;;
44126;SDS011;29786;50.798;7.302;2022-08-02T04:40:52;8.7;;;6.9;;
44126;SDS011;29786;50.798;7.302;2022-08-02T04:41:52;7.7;;;6.3;;
44126;SDS011;29786;50.798;7.302;2022-08-02T04:42:52;6.8;;;6.2;;
44126;SDS011;29786;50.798;7.302;2022-08-02T04:43:52;8.5;;;7;;
44126;SDS011;29786;50.798;7.302;2022-08-02T04:44:52;7.9;;;7.1;;
44126;SDS011;29786;50.798;7.302;2022-08-02T04:45:52;8.6;;;6.1;;
44126;SDS011;29786;50.798;7.302;2022-08-02T04:46:52;7;;;6.3;;
44126;SDS011;29786;50.798;7.302;2022-08-02T04:47:52;6.6;;;5.8;;
44126;SDS011;29786;50.798;7.302;2022-08-02T04:48:52;6.6;;;6.1;;
44126;SDS011;29786;50.798;7.302;2022-08-02T04:49:52;7.1;;;6.4;;
44126;SDS011;29786;50.798;7.302;2022-08-02T04:50:52;6.2;;;5.4;;
44126;SDS011;29786;50.798;7.302;2022-08-02T04:51:52;6.2;;;5.6;;
44126;SDS011;29786;50.798;7.302;2022-08-02T04:52:52;6.5;;;5.9;;
44126;SDS011;29786;50.798;7.302;2022-08-02T04:53:52;7.5;;;5.4;;
44126;SDS011;29786;50.798;7.302;2022-08-02T04:54:52;7.7;;;5.9;;
44126;SDS011;29786;50.798;7.302;2022-08-02T04:55:52;7;;;5.6;;
44126;SDS011;29786;50.798;7.302;2022-08-02T04:56:52;6.5;;;5.3;;
44126;SDS011;29786;50.798;7.302;2022-08-02T04:57:52;6.7;;;5.7;;
44126;SDS011;29786;50.798;7.302;2022-08-02T04:58:52;5.6;;;5.1;;
44126;SDS011;29786;50.798;7.302;2022-08-02T04:59:52;7.7;;;6.1;;
44126;SDS011;29786;50.798;7.302;2022-08-02T05:00:52;6.8;;;6;;
44126;SDS011;29786;50.798;7.302;2022-08-02T05:01:52;6.1;;;5.2;;
44126;SDS011;29786;50.798;7.302;2022-08-02T05:02:52;7.3;;;6.5;;
44126;SDS011;29786;50.798;7.302;2022-08-02T05:03:52;6.8;;;5.2;;
44126;SDS011;29786;50.798;7.302;2022-08-02T05:04:52;6.4;;;5.8;;
44126;SDS011;29786;50.798;7.302;2022-08-02T05:05:52;6.7;;;6;;
44126;SDS011;29786;50.798;7.302;2022-08-02T05:06:52;8.9;;;6.1;;
44126;SDS011;29786;50.798;7.302;2022-08-02T05:07:52;6.5;;;5.9;;
44126;SDS011;29786;50.798;7.302;2022-08-02T05:08:52;7.6;;;6.5;;
44126;SDS011;29786;50.798;7.302;2022-08-02T05:09:52;6.1;;;5.5;;
44126;SDS011;29786;50.798;7.302;2022-08-02T05:10:52;8;;;6;;
44126;SDS011;29786;50.798;7.302;2022-08-02T05:11:52;10.6;;;6.7;;
44126;SDS011;29786;50.798;7.302;2022-08-02T05:12:52;6.1;;;5.5;;
44126;SDS011;29786;50.798;7.302;2022-08-02T05:13:52;8.7;;;6.3;;
44126;SDS011;29786;50.798;7.302;2022-08-02T05:14:52;8.9;;;6.4;;
44126;SDS011;29786;50.798;7.302;2022-08-02T05:15:52;7.2;;;6;;
44126;SDS011;29786;50.798;7.302;2022-08-02T05:16:52;8.8;;;6.6;;
44126;SDS011;29786;50.798;7.302;2022-08-02T05:17:52;7.4;;;6.7;;
44126;SDS011;29786;50.798;7.302;2022-08-02T05:18:52;8.5;;;5.8;;
44126;SDS011;29786;50.798;7.302;2022-08-02T05:19:52;8.4;;;6.5;;
44126;SDS011;29786;50.798;7.302;2022-08-02T05:20:52;7.2;;;6.5;;
44126;SDS011;29786;50.798;7.302;2022-08-02T05:21:52;7.1;;;6;;
44126;SDS011;29786;50.798;7.302;2022-08-02T05:22:52;6.7;;;6;;
44126;SDS011;29786;50.798;7.302;2022-08-02T05:23:52;7;;;5.5;;
44126;SDS011;29786;50.798;7.302;2022-08-02T05:24:52;7;;;6.3;;
44126;SDS011;29786;50.798;7.302;2022-08-02T05:25:52;6.1;;;5.4;;
44126;SDS011;29786;50.798;7.302;2022-08-02T05:26:52;8.1;;;6.2;;
44126;SDS011;29786;50.798;7.302;2022-08-02T05:27:52;6.3;;;5.7;;
44126;SDS011;29786;50.798;7.302;2022-08-02T05:28:52;6.4;;;5.8;;
44126;SDS011;29786;50.798;7.302;2022-08-02T05:29:52;6.3;;;5.7;;
44126;SDS011;29786;50.798;7.302;2022-08-02T05:30:52;6.7;;;5.3;;
44126;SDS011;29786;50.798;7.302;2022-08-02T05:31:52;6.5;;;5.9;;
44126;SDS011;29786;50.798;7.302;2022-08-02T05:32:52;6;;;4.7;;
44126;SDS011;29786;50.798;7.302;2022-08-02T05:33:52;6.5;;;5.8;;
44126;SDS011;29786;50.798;7.302;2022-08-02T05:34:52;6.3;;;5.7;;
44126;SDS011;29786;50.798;7.302;2022-08-02T05:35:52;8.4;;;6.3;;
44126;SDS011;29786;50.798;7.302;2022-08-02T05:36:52;7.1;;;6.4;;
44126;SDS011;29786;50.798;7.302;2022-08-02T05:37:52;6.6;;;6;;
44126;SDS011;29786;50.798;7.302;2022-08-02T05:38:52;6.7;;;5.9;;
44126;SDS011;29786;50.798;7.302;2022-08-02T05:39:52;7.3;;;5.7;;
44126;SDS011;29786;50.798;7.302;2022-08-02T05:40:52;6.5;;;5.9;;
44126;SDS011;29786;50.798;7.302;2022-08-02T05:41:52;6.7;;;5.8;;
44126;SDS011;29786;50.798;7.302;2022-08-02T05:42:52;6.4;;;5.2;;
44126;SDS011;29786;50.798;7.302;2022-08-02T05:43:52;5.4;;;5;;
44126;SDS011;29786;50.798;7.302;2022-08-02T05:44:52;6.8;;;6.2;;
44126;SDS011;29786;50.798;7.302;2022-08-02T05:45:52;6.9;;;6.2;;
44126;SDS011;29786;50.798;7.302;2022-08-02T05:46:52;7.5;;;5.9;;
44126;SDS011;29786;50.798;7.302;2022-08-02T05:47:52;6.4;;;5.5;;
44126;SDS011;29786;50.798;7.302;2022-08-02T05:48:52;7;;;6.3;;
44126;SDS011;29786;50.798;7.302;2022-08-02T05:49:52;7;;;5.8;;
44126;SDS011;29786;50.798;7.302;2022-08-02T05:50:53;7.3;;;6.3;;
44126;SDS011;29786;50.798;7.302;2022-08-02T05:52:02;6.5;;;5.9;;
44126;SDS011;29786;50.798;7.302;2022-08-02T05:52:55;6.6;;;6;;
44126;SDS011;29786;50.798;7.302;2022-08-02T05:53:58;7.3;;;6.4;;
44126;SDS011;29786;50.798;7.302;2022-08-02T05:54:58;6.9;;;6.2;;
44126;SDS011;29786;50.798;7.302;2022-08-02T05:55:56;6.6;;;5.9;;
44126;SDS011;29786;50.798;7.302;2022-08-02T05:56:58;8.1;;;6.3;;
44126;SDS011;29786;50.798;7.302;2022-08-02T05:58:54;6.9;;;6.1;;
44126;SDS011;29786;50.798;7.302;2022-08-02T05:59:00;7.3;;;6.4;;
44126;SDS011;29786;50.798;7.302;2022-08-02T06:00:24;7.4;;;5.6;;
44126;SDS011;29786;50.798;7.302;2022-08-02T06:00:52;6.8;;;6.1;;
44126;SDS011;29786;50.798;7.302;2022-08-02T06:01:54;6.8;;;6;;
44126;SDS011;29786;50.798;7.302;2022-08-02T06:02:58;6.5;;;5.9;;
44126;SDS011;29786;50.798;7.302;2022-08-02T06:03:52;6;;;5.2;;
44126;SDS011;29786;50.798;7.302;2022-08-02T06:04:55;6.7;;;6;;
44126;SDS011;29786;50.798;7.302;2022-08-02T06:06:03;7;;;6.4;;
44126;SDS011;29786;50.798;7.302;2022-08-02T06:06:54;6.4;;;5.6;;
44126;SDS011;29786;50.798;7.302;2022-08-02T06:07:52;7.9;;;5.9;;
44126;SDS011;29786;50.798;7.302;2022-08-02T06:08:54;7.1;;;6;;
44126;SDS011;29786;50.798;7.302;2022-08-02T06:09:52;5.9;;;5.3;;
44126;SDS011;29786;50.798;7.302;2022-08-02T06:10:52;7.6;;;6.1;;
44126;SDS011;29786;50.798;7.302;2022-08-02T06:11:52;5.9;;;5.3;;
44126;SDS011;29786;50.798;7.302;2022-08-02T06:12:55;7;;;6.3;;
44126;SDS011;29786;50.798;7.302;2022-08-02T06:13:52;5.9;;;5.4;;
44126;SDS011;29786;50.798;7.302;2022-08-02T06:14:52;5.9;;;5.4;;
44126;SDS011;29786;50.798;7.302;2022-08-02T06:15:52;5.2;;;4.8;;